Time;durP1;ratioP1;P1;durP2;ratioP2;P2;SDS_P1;SDS_P2;PMS_P1;PMS_P2;Temp;Humidity;BMP_temperature;BMP_pressure;BME280_temperature;BME280_humidity;BME280_pressure;Samples;Min_cycle;Max_cycle;Signal;HPM_P1;HPM_P2
2024/01/15 00:02:06;;;;;;;32.87;18.87;;;2.40;99.90;;;;;;5034042;28;20215;-75
2024/01/15 00:04:37;;;;;;;27.37;18.57;;;2.30;99.90;;;;;;5017806;28;20937;-74
2024/01/15 00:07:03;;;;;;;31.67;19.97;;;2.40;99.90;;;;;;5033710;28;20197;-73
2024/01/15 00:09:28;;;;;;;33.77;21.67;;;2.40;99.90;;;;;;5035037;28;20429;-74
2024/01/15 00:11:54;;;;;;;31.30;20.87;;;2.40;99.90;;;;;;5035234;28;20202;-74
2024/01/15 00:14:20;;;;;;;31.37;19.13;;;2.40;99.90;;;;;;5003965;28;20214;-73
2024/01/15 00:16:46;;;;;;;28.77;19.93;;;2.40;99.90;;;;;;5035615;28;20197;-73
2024/01/15 00:19:12;;;;;;;38.70;22.47;;;2.40;99.90;;;;;;5034683;28;20594;-75
2024/01/15 00:21:38;;;;;;;31.33;19.10;;;2.40;99.90;;;;;;5035555;28;20482;-75
2024/01/15 00:24:04;;;;;;;31.33;19.60;;;2.40;99.90;;;;;;5034348;28;20421;-74
2024/01/15 00:26:29;;;;;;;32.33;21.30;;;2.40;99.90;;;;;;5003113;28;20196;-74
2024/01/15 00:28:55;;;;;;;36.50;20.83;;;2.40;99.90;;;;;;5035197;28;20892;-75
2024/01/15 00:31:21;;;;;;;35.67;20.13;;;2.40;99.90;;;;;;5034801;28;20441;-75
2024/01/15 00:33:46;;;;;;;31.60;20.40;;;2.40;99.90;;;;;;5035060;28;20190;-74
2024/01/15 00:36:13;;;;;;;33.43;21.60;;;2.40;99.90;;;;;;5033665;28;20197;-75
2024/01/15 00:38:39;;;;;;;30.47;19.33;;;2.40;99.90;;;;;;5017473;28;20190;-75
2024/01/15 00:41:04;;;;;;;34.03;20.90;;;2.40;99.90;;;;;;5001592;28;20432;-75
2024/01/15 00:43:30;;;;;;;32.10;21.07;;;2.40;99.90;;;;;;5017034;28;20218;-74
2024/01/15 00:45:56;;;;;;;35.60;21.90;;;2.40;99.90;;;;;;5034411;28;20185;-74
2024/01/15 00:48:21;;;;;;;31.77;20.17;;;2.40;99.90;;;;;;5034713;28;20834;-74
2024/01/15 00:50:47;;;;;;;35.00;20.40;;;2.40;99.90;;;;;;5034556;28;20537;-74
2024/01/15 00:53:13;;;;;;;32.53;21.20;;;2.50;99.90;;;;;;5033323;28;20185;-75
2024/01/15 00:55:38;;;;;;;31.60;20.80;;;2.40;99.90;;;;;;5035028;28;20269;-75
2024/01/15 00:58:04;;;;;;;28.10;18.67;;;2.40;99.90;;;;;;5032991;28;20190;-75
2024/01/15 01:00:30;;;;;;;33.53;21.10;;;2.40;99.90;;;;;;5001229;28;20193;-75
2024/01/15 01:02:55;;;;;;;30.63;19.80;;;2.40;99.90;;;;;;5034002;28;20221;-74
2024/01/15 01:05:21;;;;;;;32.27;21.50;;;2.40;99.90;;;;;;5015995;28;20996;-75
2024/01/15 01:07:47;;;;;;;33.90;21.40;;;2.40;99.90;;;;;;5016585;28;20551;-74
2024/01/15 01:10:12;;;;;;;35.43;21.87;;;2.40;99.90;;;;;;5033216;28;20182;-75
2024/01/15 01:12:38;;;;;;;34.50;20.57;;;2.40;99.90;;;;;;5034523;28;20967;-75
2024/01/15 01:15:04;;;;;;;34.23;20.10;;;2.40;99.90;;;;;;5032556;28;20185;-75
2024/01/15 01:17:30;;;;;;;30.40;19.93;;;2.40;99.90;;;;;;5001713;28;20209;-75
2024/01/15 01:19:56;;;;;;;37.73;21.90;;;2.40;99.90;;;;;;5032962;28;20440;-74
2024/01/15 01:22:21;;;;;;;27.13;19.10;;;2.40;99.90;;;;;;5033000;28;20476;-74
2024/01/15 01:24:47;;;;;;;31.60;20.13;;;2.40;99.90;;;;;;5033494;28;20706;-74
2024/01/15 01:27:13;;;;;;;26.50;18.03;;;2.40;99.90;;;;;;5001014;28;20190;-75
2024/01/15 01:29:38;;;;;;;31.07;21.47;;;2.40;99.90;;;;;;5034417;28;20181;-75
2024/01/15 01:32:04;;;;;;;29.50;19.13;;;2.40;99.90;;;;;;5014296;28;20203;-75
2024/01/15 01:34:39;;;;;;;36.50;20.47;;;2.40;99.90;;;;;;5002059;28;20185;-75
2024/01/15 01:37:05;;;;;;;28.17;19.50;;;2.50;99.90;;;;;;5032357;28;20423;-74
2024/01/15 01:39:31;;;;;;;27.83;19.40;;;2.50;99.90;;;;;;5033764;28;20494;-74
2024/01/15 01:41:56;;;;;;;30.97;20.80;;;2.50;99.90;;;;;;5031739;28;20309;-75
2024/01/15 01:44:22;;;;;;;28.37;17.97;;;2.50;99.90;;;;;;5014769;28;20249;-74
2024/01/15 01:46:48;;;;;;;27.10;19.63;;;2.50;99.90;;;;;;5032971;28;20213;-74
2024/01/15 01:49:14;;;;;;;29.73;19.13;;;2.50;99.90;;;;;;5032929;28;20213;-74
2024/01/15 01:51:40;;;;;;;27.03;18.47;;;2.50;99.90;;;;;;5017319;28;21029;-74
2024/01/15 01:54:07;;;;;;;32.17;18.20;;;2.50;99.90;;;;;;5030711;28;20192;-74
2024/01/15 01:56:34;;;;;;;34.03;20.10;;;2.50;99.90;;;;;;5032885;28;21119;-75
2024/01/15 01:59:00;;;;;;;29.60;19.03;;;2.50;99.90;;;;;;5000167;28;20942;-75
2024/01/15 02:01:26;;;;;;;30.30;18.10;;;2.50;99.90;;;;;;5032453;28;20475;-74
2024/01/15 02:03:52;;;;;;;30.37;18.13;;;2.50;99.90;;;;;;5032300;28;20547;-76
2024/01/15 02:06:18;;;;;;;26.67;18.83;;;2.50;99.90;;;;;;5032374;28;20178;-74
2024/01/15 02:08:44;;;;;;;29.33;18.13;;;2.50;99.90;;;;;;5033035;28;20267;-74
2024/01/15 02:11:10;;;;;;;28.23;19.20;;;2.50;99.90;;;;;;5014569;28;20464;-75
2024/01/15 02:13:36;;;;;;;32.57;20.03;;;2.50;99.90;;;;;;5033127;28;20432;-74
2024/01/15 02:16:02;;;;;;;27.40;18.50;;;2.50;99.90;;;;;;5031258;28;20444;-75
2024/01/15 02:18:27;;;;;;;33.07;21.70;;;2.50;99.90;;;;;;5032521;28;20279;-74
2024/01/15 02:20:53;;;;;;;31.80;19.10;;;2.50;99.90;;;;;;5032077;28;20182;-76
2024/01/15 02:23:19;;;;;;;26.83;19.17;;;2.50;99.90;;;;;;5032626;28;20264;-74
2024/01/15 02:25:46;;;;;;;28.27;18.77;;;2.50;99.90;;;;;;5014761;28;20186;-74
2024/01/15 02:28:17;;;;;;;30.70;21.00;;;2.50;99.90;;;;;;5031499;28;20269;-75
2024/01/15 02:30:43;;;;;;;29.80;19.00;;;2.50;99.90;;;;;;5017818;28;20436;-74
2024/01/15 02:33:10;;;;;;;28.57;18.67;;;2.50;99.90;;;;;;5032075;28;20432;-75
2024/01/15 02:35:36;;;;;;;26.03;18.63;;;2.50;99.90;;;;;;5014228;28;20829;-75
2024/01/15 02:38:05;;;;;;;31.30;20.07;;;2.50;99.90;;;;;;5031632;28;20433;-75
2024/01/15 02:40:31;;;;;;;27.70;17.70;;;2.50;99.90;;;;;;5032398;28;20433;-74
2024/01/15 02:42:57;;;;;;;25.80;17.40;;;2.50;99.90;;;;;;5031839;28;20468;-74
2024/01/15 02:45:23;;;;;;;29.77;18.73;;;2.50;99.90;;;;;;5032096;28;20504;-74
2024/01/15 02:47:49;;;;;;;25.30;17.80;;;2.50;99.90;;;;;;5031878;28;20189;-74
2024/01/15 02:50:15;;;;;;;29.73;18.03;;;2.60;99.90;;;;;;5033331;28;20501;-75
2024/01/15 02:52:41;;;;;;;24.97;17.87;;;2.50;99.90;;;;;;5032742;28;20456;-75
2024/01/15 02:55:07;;;;;;;24.63;17.30;;;2.50;99.90;;;;;;5033273;28;20293;-75
2024/01/15 02:57:33;;;;;;;28.17;17.63;;;2.50;99.90;;;;;;5033781;28;20421;-74
2024/01/15 02:59:59;;;;;;;24.53;17.00;;;2.50;99.90;;;;;;5015114;28;20507;-73
2024/01/15 03:02:25;;;;;;;24.60;16.40;;;2.50;99.90;;;;;;5033575;28;20217;-73
2024/01/15 03:04:50;;;;;;;28.93;17.27;;;2.50;99.90;;;;;;5031907;28;20429;-74
2024/01/15 03:07:16;;;;;;;24.03;16.00;;;2.50;99.90;;;;;;5037445;28;20189;-73
2024/01/15 03:09:42;;;;;;;25.90;16.03;;;2.50;99.90;;;;;;5037100;28;20598;-73
2024/01/15 03:12:08;;;;;;;25.27;15.23;;;2.50;99.90;;;;;;5036981;28;20182;-75
2024/01/15 03:14:34;;;;;;;22.03;14.90;;;2.50;99.90;;;;;;5037300;28;20243;-73
2024/01/15 03:17:00;;;;;;;22.50;16.17;;;2.50;99.90;;;;;;5036125;28;20194;-74
2024/01/15 03:19:26;;;;;;;26.67;14.97;;;2.50;99.90;;;;;;5019827;28;20491;-74
2024/01/15 03:21:52;;;;;;;27.97;16.33;;;2.50;99.90;;;;;;5036328;28;20435;-74
2024/01/15 03:24:17;;;;;;;26.40;16.00;;;2.50;99.90;;;;;;5019673;28;20194;-75
2024/01/15 03:26:43;;;;;;;26.67;17.90;;;2.50;99.90;;;;;;5037194;28;20276;-76
2024/01/15 03:29:09;;;;;;;25.10;15.63;;;2.50;99.90;;;;;;5048044;28;20641;-74
2024/01/15 03:31:34;;;;;;;25.27;17.27;;;2.50;99.90;;;;;;5049409;28;20221;-75
2024/01/15 03:34:00;;;;;;;25.13;17.07;;;2.50;99.90;;;;;;5043498;28;20222;-75
2024/01/15 03:36:26;;;;;;;22.77;17.43;;;2.50;99.90;;;;;;5037272;28;20264;-74
2024/01/15 03:38:52;;;;;;;26.80;17.60;;;2.50;99.90;;;;;;5019474;28;20428;-75
2024/01/15 03:41:17;;;;;;;27.50;17.13;;;2.50;99.90;;;;;;5037781;28;20174;-74
2024/01/15 03:43:43;;;;;;;24.90;17.03;;;2.50;99.90;;;;;;5037161;28;20217;-73
2024/01/15 03:46:11;;;;;;;22.80;15.93;;;2.60;99.90;;;;;;5036574;28;20629;-74
2024/01/15 03:48:37;;;;;;;21.60;14.90;;;2.50;99.90;;;;;;5036107;28;20190;-73
2024/01/15 03:51:03;;;;;;;26.13;15.77;;;2.50;99.90;;;;;;5035898;28;20533;-74
2024/01/15 03:53:28;;;;;;;29.07;16.20;;;2.50;99.90;;;;;;5002412;28;20553;-74
2024/01/15 03:55:54;;;;;;;24.07;15.60;;;2.50;99.90;;;;;;5035671;28;20435;-75
2024/01/15 03:58:19;;;;;;;26.83;17.60;;;2.50;99.90;;;;;;5018544;28;20182;-74
2024/01/15 04:00:45;;;;;;;29.20;15.73;;;2.50;99.90;;;;;;5018313;28;20257;-74
2024/01/15 04:03:11;;;;;;;21.20;14.13;;;2.50;99.90;;;;;;5018234;28;20217;-73
2024/01/15 04:05:37;;;;;;;19.93;13.90;;;2.50;99.90;;;;;;5035518;28;20190;-75
2024/01/15 04:08:03;;;;;;;20.13;13.70;;;2.60;99.90;;;;;;5036401;28;20675;-74
2024/01/15 04:10:29;;;;;;;22.30;13.80;;;2.60;99.90;;;;;;5036516;28;20437;-73
2024/01/15 04:12:55;;;;;;;24.53;13.63;;;2.60;99.90;;;;;;5036003;28;20432;-73
2024/01/15 04:15:20;;;;;;;20.40;14.20;;;2.60;99.90;;;;;;5017864;28;20222;-75
2024/01/15 04:17:46;;;;;;;19.60;13.27;;;2.60;99.90;;;;;;5035775;28;20186;-73
2024/01/15 04:20:12;;;;;;;25.47;14.13;;;2.60;99.90;;;;;;5017854;28;20185;-74
2024/01/15 04:22:37;;;;;;;19.73;12.83;;;2.60;99.90;;;;;;5035980;28;20210;-74
2024/01/15 04:25:04;;;;;;;23.90;14.40;;;2.60;99.90;;;;;;5017503;28;20587;-74
2024/01/15 04:27:29;;;;;;;22.20;14.13;;;2.50;99.90;;;;;;5036217;28;20193;-74
2024/01/15 04:29:55;;;;;;;18.77;13.87;;;2.50;99.90;;;;;;5035683;28;20425;-74
2024/01/15 04:32:21;;;;;;;18.43;13.67;;;2.50;99.90;;;;;;5017905;28;20194;-74
2024/01/15 04:34:46;;;;;;;21.37;13.90;;;2.60;99.90;;;;;;5034441;28;20198;-73
2024/01/15 04:37:14;;;;;;;18.80;13.40;;;2.60;99.90;;;;;;5017100;28;20197;-74
2024/01/15 04:39:39;;;;;;;21.50;14.07;;;2.50;99.90;;;;;;5017516;28;20537;-74
2024/01/15 04:42:05;;;;;;;19.47;14.07;;;2.50;99.90;;;;;;5035466;28;20468;-73
2024/01/15 04:44:31;;;;;;;21.97;12.93;;;2.50;99.90;;;;;;5017660;28;20905;-75
2024/01/15 04:46:56;;;;;;;19.33;12.10;;;2.50;99.90;;;;;;5017144;28;20691;-75
2024/01/15 04:49:22;;;;;;;17.93;13.73;;;2.40;99.90;;;;;;5035396;28;20178;-74
2024/01/15 04:51:48;;;;;;;22.63;15.13;;;2.50;99.90;;;;;;5017489;28;20271;-73
2024/01/15 04:54:17;;;;;;;18.80;12.13;;;2.50;99.90;;;;;;5002714;28;20236;-74
2024/01/15 04:56:44;;;;;;;19.60;11.80;;;2.50;99.90;;;;;;5034349;28;20182;-73
2024/01/15 04:59:10;;;;;;;19.57;13.77;;;2.50;99.90;;;;;;5017536;28;20993;-74
2024/01/15 05:01:36;;;;;;;21.17;13.13;;;2.50;99.90;;;;;;5001857;28;20473;-74
2024/01/15 05:04:01;;;;;;;17.20;12.73;;;2.50;99.90;;;;;;5034782;28;20495;-74
2024/01/15 05:06:27;;;;;;;20.10;13.20;;;2.50;99.90;;;;;;5034610;28;20606;-75
2024/01/15 05:08:53;;;;;;;21.93;12.87;;;2.50;99.90;;;;;;5034664;28;20657;-74
2024/01/15 05:11:19;;;;;;;20.87;13.33;;;2.50;99.90;;;;;;5035178;28;20429;-74
2024/01/15 05:13:44;;;;;;;18.10;13.13;;;2.50;99.90;;;;;;5034879;28;20189;-74
2024/01/15 05:16:10;;;;;;;18.40;13.60;;;2.50;99.90;;;;;;5034626;28;20647;-74
2024/01/15 05:18:37;;;;;;;19.73;13.13;;;2.50;99.90;;;;;;5029514;28;20191;-75
2024/01/15 05:21:03;;;;;;;18.17;12.73;;;2.50;99.90;;;;;;5033643;28;20185;-74
2024/01/15 05:23:30;;;;;;;21.03;14.13;;;2.50;99.90;;;;;;5035097;28;20477;-75
2024/01/15 05:25:56;;;;;;;19.20;13.67;;;2.50;99.90;;;;;;5031587;28;20449;-74
2024/01/15 05:28:22;;;;;;;21.17;13.00;;;2.50;99.90;;;;;;5015148;28;20794;-74
2024/01/15 05:30:50;;;;;;;19.10;13.70;;;2.50;99.90;;;;;;5034356;28;20421;-74
2024/01/15 05:33:16;;;;;;;18.73;13.23;;;2.50;99.90;;;;;;5015705;28;20234;-74
2024/01/15 05:35:42;;;;;;;20.97;14.13;;;2.50;99.90;;;;;;5033902;28;20425;-74
2024/01/15 05:38:07;;;;;;;23.40;14.20;;;2.50;99.90;;;;;;5034830;28;20437;-75
2024/01/15 05:40:33;;;;;;;20.10;12.90;;;2.50;99.90;;;;;;5032807;28;20652;-75
2024/01/15 05:42:59;;;;;;;21.07;13.80;;;2.40;99.90;;;;;;5034147;28;20265;-75
2024/01/15 05:45:26;;;;;;;20.17;13.23;;;2.50;99.90;;;;;;5033634;28;20786;-73
2024/01/15 05:47:52;;;;;;;21.20;12.73;;;2.50;99.90;;;;;;5030963;28;20186;-74
2024/01/15 05:50:18;;;;;;;21.13;13.47;;;2.50;99.90;;;;;;4998237;28;20444;-74
2024/01/15 05:52:43;;;;;;;19.30;12.70;;;2.50;99.90;;;;;;5031346;28;20236;-74
2024/01/15 05:55:09;;;;;;;20.00;13.00;;;2.50;99.90;;;;;;5030546;28;20437;-75
2024/01/15 05:57:36;;;;;;;19.57;13.73;;;2.50;99.90;;;;;;5033252;28;20180;-75
2024/01/15 06:00:03;;;;;;;26.10;13.50;;;2.60;99.90;;;;;;5033861;28;20437;-73
2024/01/15 06:02:29;;;;;;;18.90;12.40;;;2.50;99.90;;;;;;5033665;28;20555;-74
2024/01/15 06:04:54;;;;;;;20.37;13.13;;;2.50;99.90;;;;;;5031963;28;20528;-74
2024/01/15 06:07:20;;;;;;;17.47;12.37;;;2.50;99.90;;;;;;5033221;28;20190;-73
2024/01/15 06:09:46;;;;;;;18.47;12.70;;;2.50;99.90;;;;;;5033832;28;20182;-73
2024/01/15 06:12:12;;;;;;;17.10;11.90;;;2.50;99.90;;;;;;5034032;28;20762;-74
2024/01/15 06:14:37;;;;;;;21.40;13.63;;;2.50;99.90;;;;;;5016698;28;20643;-74
2024/01/15 06:17:03;;;;;;;20.70;13.40;;;2.50;99.90;;;;;;5015938;28;20501;-74
2024/01/15 06:19:29;;;;;;;23.50;15.20;;;2.50;99.90;;;;;;5032697;28;20187;-73
2024/01/15 06:21:55;;;;;;;20.23;13.93;;;2.50;99.90;;;;;;5033403;28;20427;-75
2024/01/15 06:24:20;;;;;;;17.67;12.50;;;2.50;99.90;;;;;;5034093;28;20193;-73
2024/01/15 06:26:47;;;;;;;16.97;13.00;;;2.50;99.90;;;;;;5033499;28;20190;-73
2024/01/15 06:29:13;;;;;;;18.27;13.23;;;2.50;99.90;;;;;;5034029;28;20185;-73
2024/01/15 06:31:38;;;;;;;17.40;12.90;;;2.50;99.90;;;;;;5032359;28;20417;-74
2024/01/15 06:34:04;;;;;;;17.70;13.43;;;2.50;99.90;;;;;;5033665;28;20185;-73
2024/01/15 06:36:29;;;;;;;20.13;12.47;;;2.60;99.90;;;;;;5033502;28;20232;-74
2024/01/15 06:38:55;;;;;;;21.03;13.30;;;2.60;99.90;;;;;;5032192;28;20690;-75
2024/01/15 06:41:21;;;;;;;17.00;12.40;;;2.60;99.90;;;;;;5032095;28;20269;-74
2024/01/15 06:43:48;;;;;;;19.00;12.03;;;2.60;99.90;;;;;;5001759;28;20529;-75
2024/01/15 06:46:22;;;;;;;18.83;12.63;;;2.60;99.90;;;;;;5015467;28;21226;-75
2024/01/15 06:48:48;;;;;;;18.27;13.60;;;2.60;99.90;;;;;;5014403;28;20467;-74
2024/01/15 06:51:15;;;;;;;18.50;12.43;;;2.60;99.90;;;;;;5032614;28;20428;-77
2024/01/15 06:53:40;;;;;;;21.97;13.50;;;2.60;99.90;;;;;;4997109;28;20441;-74
2024/01/15 06:56:06;;;;;;;16.73;12.40;;;2.60;99.90;;;;;;5031801;28;21085;-72
2024/01/15 06:58:32;;;;;;;19.90;13.50;;;2.60;99.90;;;;;;4999082;28;20214;-74
2024/01/15 07:00:57;;;;;;;27.30;14.30;;;2.60;99.90;;;;;;5016058;28;20190;-74
2024/01/15 07:03:23;;;;;;;19.57;12.13;;;2.60;99.90;;;;;;5033024;28;20274;-73
2024/01/15 07:05:49;;;;;;;17.77;11.43;;;2.60;99.90;;;;;;5033110;28;20178;-74
2024/01/15 07:08:15;;;;;;;17.67;12.00;;;2.60;99.90;;;;;;5031890;28;20194;-73
2024/01/15 07:10:41;;;;;;;19.90;11.97;;;2.60;99.90;;;;;;5032637;28;20182;-73
2024/01/15 07:13:07;;;;;;;18.93;12.77;;;2.70;99.90;;;;;;5033625;28;20425;-74
2024/01/15 07:15:32;;;;;;;13.90;11.33;;;2.70;99.90;;;;;;5029575;28;20201;-74
2024/01/15 07:17:58;;;;;;;17.73;11.17;;;2.70;99.90;;;;;;5034223;28;20516;-74
2024/01/15 07:20:24;;;;;;;13.30;10.93;;;2.70;99.90;;;;;;5014711;28;20201;-74
2024/01/15 07:22:49;;;;;;;10.90;9.63;;;2.70;99.90;;;;;;5032266;28;20218;-73
2024/01/15 07:25:16;;;;;;;12.47;9.87;;;2.70;99.90;;;;;;5015256;28;20325;-74
2024/01/15 07:27:44;;;;;;;15.37;8.63;;;2.70;99.90;;;;;;5011664;28;20240;-75
2024/01/15 07:30:11;;;;;;;15.03;8.80;;;2.70;99.90;;;;;;5031210;28;20429;-74
2024/01/15 07:32:37;;;;;;;15.53;8.90;;;2.70;99.90;;;;;;5014996;28;20429;-74
2024/01/15 07:35:03;;;;;;;10.33;7.33;;;2.70;99.90;;;;;;5029952;28;20440;-73
2024/01/15 07:37:29;;;;;;;9.03;7.17;;;2.70;99.90;;;;;;5029126;28;20796;-75
2024/01/15 07:39:54;;;;;;;10.83;7.43;;;2.70;99.90;;;;;;5014847;28;20436;-74
2024/01/15 07:42:20;;;;;;;9.00;5.70;;;2.70;99.90;;;;;;5031624;28;20367;-74
2024/01/15 07:44:46;;;;;;;6.73;5.47;;;2.70;99.90;;;;;;5030839;28;20663;-74
2024/01/15 07:47:12;;;;;;;8.47;6.60;;;2.70;99.90;;;;;;5001759;28;20190;-71
2024/01/15 07:49:38;;;;;;;7.83;5.73;;;2.70;99.90;;;;;;5029873;28;20429;-71
2024/01/15 07:52:05;;;;;;;6.40;5.73;;;2.70;99.90;;;;;;5028677;28;20421;-72
2024/01/15 07:54:31;;;;;;;7.13;4.97;;;2.70;99.90;;;;;;5012854;28;20182;-71
2024/01/15 07:57:04;;;;;;;7.73;5.67;;;2.70;99.90;;;;;;5031659;28;20429;-72
2024/01/15 07:59:30;;;;;;;7.87;5.50;;;2.80;99.90;;;;;;5014001;28;20528;-71
2024/01/15 08:01:58;;;;;;;5.50;5.00;;;2.80;99.90;;;;;;5034674;28;20473;-71
2024/01/15 08:04:24;;;;;;;6.50;5.47;;;2.80;99.90;;;;;;5035425;28;20507;-72
2024/01/15 08:06:50;;;;;;;7.77;5.30;;;2.80;99.90;;;;;;5035299;28;20535;-71
2024/01/15 08:09:16;;;;;;;9.20;6.90;;;2.80;99.90;;;;;;5035798;28;20182;-71
2024/01/15 08:11:42;;;;;;;8.43;7.53;;;2.80;99.90;;;;;;5028709;28;20441;-71
2024/01/15 08:14:09;;;;;;;9.43;8.13;;;2.80;99.90;;;;;;5032510;28;20285;-71
2024/01/15 08:16:35;;;;;;;14.70;9.20;;;2.80;99.90;;;;;;5033719;28;20447;-71
2024/01/15 08:19:01;;;;;;;13.73;10.07;;;2.80;99.90;;;;;;5034406;28;20429;-72
2024/01/15 08:21:30;;;;;;;14.10;10.30;;;2.80;99.90;;;;;;5034454;28;20435;-71
2024/01/15 08:23:59;;;;;;;13.70;9.97;;;2.80;99.90;;;;;;5034278;28;20217;-71
2024/01/15 08:26:25;;;;;;;12.90;9.77;;;2.80;99.90;;;;;;5033875;28;20431;-71
2024/01/15 08:28:51;;;;;;;12.63;9.40;;;2.80;99.90;;;;;;5032440;28;20448;-72
2024/01/15 08:31:17;;;;;;;11.93;9.20;;;2.80;99.90;;;;;;5032840;28;20429;-71
2024/01/15 08:33:43;;;;;;;13.43;9.30;;;2.70;99.90;;;;;;5013507;28;20686;-72
2024/01/15 08:36:09;;;;;;;10.37;9.27;;;2.70;99.90;;;;;;5032858;28;20440;-72
2024/01/15 08:38:35;;;;;;;11.30;8.67;;;2.80;99.90;;;;;;5033480;28;20473;-71
2024/01/15 08:41:01;;;;;;;11.90;8.33;;;2.70;99.90;;;;;;5035063;28;20436;-72
2024/01/15 08:43:27;;;;;;;14.07;8.90;;;2.80;99.90;;;;;;5016281;28;20212;-72
2024/01/15 08:45:53;;;;;;;11.47;9.40;;;2.70;99.90;;;;;;5017163;28;20665;-71
2024/01/15 08:48:19;;;;;;;14.70;9.70;;;2.70;99.90;;;;;;5034193;28;20763;-72
2024/01/15 08:50:48;;;;;;;10.90;9.30;;;2.70;99.90;;;;;;5016045;28;21122;-72
2024/01/15 08:53:14;;;;;;;11.17;9.00;;;2.70;99.90;;;;;;5034685;28;20428;-72
2024/01/15 08:55:42;;;;;;;11.90;9.33;;;2.70;99.90;;;;;;5034979;28;20437;-72
2024/01/15 08:58:08;;;;;;;11.93;9.43;;;2.70;99.90;;;;;;5033557;28;20786;-72
2024/01/15 09:00:34;;;;;;;11.70;9.67;;;2.70;99.90;;;;;;5033277;28;20441;-72
2024/01/15 09:03:00;;;;;;;13.20;10.10;;;2.70;99.90;;;;;;5032556;28;21030;-72
2024/01/15 09:05:26;;;;;;;11.30;10.00;;;2.70;99.90;;;;;;5032076;28;20446;-72
2024/01/15 09:07:52;;;;;;;13.40;10.90;;;2.70;99.90;;;;;;5033211;28;20935;-72
2024/01/15 09:10:18;;;;;;;11.53;10.17;;;2.70;99.90;;;;;;5034279;28;20186;-72
2024/01/15 09:12:44;;;;;;;11.50;10.30;;;2.70;99.90;;;;;;5033020;28;20219;-72
2024/01/15 09:15:10;;;;;;;11.53;10.07;;;2.70;99.90;;;;;;5014086;28;20456;-72
2024/01/15 09:17:35;;;;;;;10.67;9.27;;;2.70;99.90;;;;;;5033402;28;20895;-72
2024/01/15 09:20:01;;;;;;;12.37;9.60;;;2.70;99.90;;;;;;5033516;28;20193;-72
2024/01/15 09:22:27;;;;;;;11.30;9.60;;;2.70;99.90;;;;;;5033478;28;20213;-72
2024/01/15 09:24:53;;;;;;;10.80;9.37;;;2.70;99.90;;;;;;5034291;28;20186;-72
2024/01/15 09:27:18;;;;;;;10.00;9.10;;;2.70;99.90;;;;;;5032947;28;20192;-72
2024/01/15 09:29:46;;;;;;;11.63;9.80;;;2.70;99.90;;;;;;5033598;28;20425;-72
2024/01/15 09:32:12;;;;;;;9.13;7.80;;;2.80;99.90;;;;;;5033066;28;20178;-72
2024/01/15 09:34:38;;;;;;;8.43;7.53;;;2.80;99.90;;;;;;5033039;28;20516;-72
2024/01/15 09:37:04;;;;;;;9.70;7.43;;;2.80;99.90;;;;;;5033483;28;20464;-72
2024/01/15 09:39:30;;;;;;;9.40;8.37;;;2.80;99.90;;;;;;5012740;28;20486;-72
2024/01/15 09:41:57;;;;;;;8.63;7.27;;;2.80;99.90;;;;;;5033564;28;20436;-72
2024/01/15 09:44:23;;;;;;;10.40;7.77;;;2.80;99.90;;;;;;5032100;28;20221;-73
2024/01/15 09:46:52;;;;;;;6.90;6.20;;;2.80;99.90;;;;;;5015615;28;20954;-72
2024/01/15 09:49:18;;;;;;;7.60;6.73;;;2.70;99.90;;;;;;5032178;28;20421;-72
2024/01/15 09:51:44;;;;;;;8.23;7.10;;;2.80;99.90;;;;;;5015279;28;20499;-72
2024/01/15 09:54:13;;;;;;;6.97;6.27;;;2.70;99.90;;;;;;5032374;28;20429;-72
2024/01/15 09:56:39;;;;;;;7.73;6.23;;;2.70;99.90;;;;;;5032832;28;20425;-72
2024/01/15 09:59:05;;;;;;;7.70;6.53;;;2.70;99.90;;;;;;5033198;28;20773;-72
2024/01/15 10:01:36;;;;;;;8.20;7.17;;;2.70;99.90;;;;;;5032002;28;20417;-72
2024/01/15 10:04:02;;;;;;;10.93;7.67;;;2.70;99.90;;;;;;5032587;28;20793;-72
2024/01/15 10:06:28;;;;;;;8.50;7.40;;;2.80;99.90;;;;;;5032452;28;20425;-71
2024/01/15 10:08:56;;;;;;;9.17;6.97;;;2.80;99.90;;;;;;5033431;28;20386;-71
2024/01/15 10:11:22;;;;;;;8.23;6.67;;;2.80;99.90;;;;;;5031773;28;20436;-72
2024/01/15 10:13:52;;;;;;;7.30;6.60;;;2.80;99.90;;;;;;5033121;28;20927;-72
2024/01/15 10:16:17;;;;;;;6.53;5.83;;;2.80;99.90;;;;;;5032680;28;20556;-72
2024/01/15 10:18:43;;;;;;;7.37;6.60;;;2.80;99.90;;;;;;5033371;28;20439;-71
2024/01/15 10:21:09;;;;;;;7.13;6.40;;;2.80;99.90;;;;;;5015546;28;20191;-71
2024/01/15 10:23:36;;;;;;;9.27;7.03;;;2.80;99.90;;;;;;5032436;28;20290;-72
2024/01/15 10:26:02;;;;;;;9.30;7.90;;;2.80;99.90;;;;;;5031662;28;20343;-72
2024/01/15 10:28:30;;;;;;;7.47;6.17;;;2.80;99.90;;;;;;5032105;28;20421;-72
2024/01/15 10:30:57;;;;;;;7.53;6.60;;;2.80;99.90;;;;;;5032270;28;20433;-72
2024/01/15 10:33:25;;;;;;;8.30;6.90;;;2.80;99.90;;;;;;5032486;28;20464;-72
2024/01/15 10:35:55;;;;;;;8.70;6.00;;;2.80;99.90;;;;;;5032125;28;20475;-72
2024/01/15 10:38:22;;;;;;;6.60;5.47;;;2.80;99.90;;;;;;5031370;28;20869;-72
2024/01/15 10:40:52;;;;;;;7.23;6.13;;;2.80;99.90;;;;;;5032974;28;20528;-72
2024/01/15 10:43:17;;;;;;;5.37;4.50;;;2.80;99.90;;;;;;5032085;28;20480;-72
2024/01/15 10:45:47;;;;;;;6.20;5.60;;;2.80;99.90;;;;;;5032600;28;20486;-73
2024/01/15 10:48:13;;;;;;;8.27;4.53;;;2.80;99.90;;;;;;5032047;28;20703;-73
2024/01/15 10:50:40;;;;;;;6.30;4.93;;;2.80;99.90;;;;;;5032190;28;21098;-72
2024/01/15 10:53:08;;;;;;;4.87;4.37;;;2.80;99.90;;;;;;5032840;28;20422;-72
2024/01/15 10:55:37;;;;;;;6.20;4.47;;;2.80;99.90;;;;;;5013915;28;20774;-72
2024/01/15 10:58:03;;;;;;;6.43;5.20;;;2.80;99.90;;;;;;5014033;28;20482;-73
2024/01/15 11:00:30;;;;;;;5.73;4.80;;;2.80;99.90;;;;;;5031994;28;20947;-72
2024/01/15 11:02:56;;;;;;;6.50;4.60;;;2.80;99.90;;;;;;5032774;28;20468;-72
2024/01/15 11:05:22;;;;;;;4.97;4.40;;;2.80;99.90;;;;;;5030726;28;20847;-72
2024/01/15 11:07:49;;;;;;;6.07;4.67;;;2.80;99.90;;;;;;5033080;28;20413;-72
2024/01/15 11:10:48;;;;;;;6.37;4.27;;;2.70;99.90;;;;;;5031715;28;20432;-72
2024/01/15 11:13:22;;;;;;;5.20;4.20;;;2.80;99.90;;;;;;5031586;28;20425;-72
2024/01/15 11:16:01;;;;;;;6.47;4.30;;;2.80;99.90;;;;;;5032023;28;20444;-71
2024/01/15 11:18:31;;;;;;;6.30;4.30;;;2.80;99.90;;;;;;5013574;28;20425;-71
2024/01/15 11:21:27;;;;;;;6.50;5.00;;;2.80;99.90;;;;;;5032025;28;20920;-72
2024/01/15 11:23:57;;;;;;;4.83;4.33;;;2.80;99.90;;;;;;5007746;28;20977;-72
2024/01/15 11:26:32;;;;;;;6.30;4.73;;;2.80;99.90;;;;;;5032063;28;20510;-72
2024/01/15 11:29:00;;;;;;;4.73;4.03;;;2.80;99.90;;;;;;5036325;28;20456;-72
2024/01/15 11:31:49;;;;;;;5.57;4.57;;;2.90;99.90;;;;;;5017911;28;20424;-72
2024/01/15 11:34:15;;;;;;;5.63;5.03;;;2.90;99.90;;;;;;5017402;28;20432;-73
2024/01/15 11:36:49;;;;;;;6.77;4.90;;;2.90;99.90;;;;;;5035871;28;20436;-72
2024/01/15 11:39:27;;;;;;;9.40;4.70;;;2.90;99.90;;;;;;5035189;28;20208;-72
2024/01/15 11:41:57;;;;;;;5.30;4.43;;;2.90;99.90;;;;;;5035091;28;20762;-73
2024/01/15 11:44:22;;;;;;;5.03;4.53;;;2.90;99.90;;;;;;5034331;28;20491;-72
2024/01/15 11:47:12;;;;;;;6.90;4.60;;;2.90;99.90;;;;;;5035967;28;20429;-72
2024/01/15 11:49:56;;;;;;;4.90;3.90;;;2.80;99.90;;;;;;5036139;28;20182;-72
2024/01/15 11:52:23;;;;;;;9.13;5.47;;;2.80;99.90;;;;;;5034584;28;20424;-72
2024/01/15 11:55:19;;;;;;;27.70;19.27;;;2.80;99.90;;;;;;5001718;28;20441;-72
2024/01/15 11:57:54;;;;;;;8.83;6.03;;;2.80;99.90;;;;;;5035992;28;20486;-72
2024/01/15 12:00:21;;;;;;;5.43;3.40;;;2.80;99.90;;;;;;5034412;28;20436;-72
2024/01/15 12:02:48;;;;;;;4.30;3.90;;;2.90;99.90;;;;;;5035098;28;20523;-72
2024/01/15 12:05:15;;;;;;;5.00;4.00;;;2.90;99.90;;;;;;5034249;28;20834;-74
2024/01/15 12:07:47;;;;;;;5.17;4.40;;;2.90;99.90;;;;;;5035107;28;20798;-74
2024/01/15 12:10:19;;;;;;;5.53;4.30;;;2.80;99.90;;;;;;5033573;28;21024;-73
2024/01/15 12:12:58;;;;;;;4.50;4.10;;;2.80;99.90;;;;;;5034903;28;20455;-74
2024/01/15 12:15:25;;;;;;;4.60;4.17;;;2.80;99.90;;;;;;5033370;28;20945;-74
2024/01/15 12:17:51;;;;;;;4.40;4.00;;;2.90;99.90;;;;;;5035045;28;20429;-74
2024/01/15 12:20:18;;;;;;;6.70;5.57;;;2.80;99.90;;;;;;5034102;28;20426;-74
2024/01/15 12:22:44;;;;;;;4.60;4.17;;;2.80;99.90;;;;;;5017062;28;20476;-74
2024/01/15 12:25:10;;;;;;;6.07;4.50;;;2.80;99.90;;;;;;5033818;28;20429;-74
2024/01/15 12:27:36;;;;;;;8.07;5.10;;;2.80;99.90;;;;;;5035274;28;20434;-74
2024/01/15 12:30:02;;;;;;;5.30;3.97;;;2.80;99.90;;;;;;5033445;28;20416;-74
2024/01/15 12:32:29;;;;;;;5.33;3.70;;;2.80;99.90;;;;;;5034883;28;20940;-74
2024/01/15 12:34:55;;;;;;;4.50;3.70;;;2.80;99.90;;;;;;5035003;28;20421;-74
2024/01/15 12:37:20;;;;;;;4.50;3.77;;;2.80;99.90;;;;;;5033659;28;20814;-74
2024/01/15 12:39:47;;;;;;;4.13;3.50;;;2.80;99.90;;;;;;5035127;28;20192;-74
2024/01/15 12:42:16;;;;;;;3.83;3.43;;;2.80;99.90;;;;;;5015771;28;20528;-74